sensor_id;sensor_type;location;lat;lon;timestamp;P1;durP1;ratioP1;P2;durP2;ratioP2
68825;SDS011;55841;53.392;10.086;2023-02-15T00:00:11;51.25;;;21.50;;
68825;SDS011;55841;53.392;10.086;2023-02-15T00:02:36;50.97;;;20.52;;
68825;SDS011;55841;53.392;10.086;2023-02-15T00:05:02;52.10;;;21.55;;
68825;SDS011;55841;53.392;10.086;2023-02-15T00:07:28;54.95;;;20.52;;
68825;SDS011;55841;53.392;10.086;2023-02-15T00:09:54;55.83;;;21.80;;
68825;SDS011;55841;53.392;10.086;2023-02-15T00:12:19;51.30;;;20.00;;
68825;SDS011;55841;53.392;10.086;2023-02-15T00:14:45;58.92;;;20.73;;
68825;SDS011;55841;53.392;10.086;2023-02-15T00:17:10;54.25;;;22.52;;
68825;SDS011;55841;53.392;10.086;2023-02-15T00:19:36;54.20;;;20.90;;
68825;SDS011;55841;53.392;10.086;2023-02-15T00:22:01;55.13;;;21.98;;
68825;SDS011;55841;53.392;10.086;2023-02-15T00:24:27;52.67;;;20.83;;
68825;SDS011;55841;53.392;10.086;2023-02-15T00:26:53;48.90;;;20.08;;
68825;SDS011;55841;53.392;10.086;2023-02-15T00:29:19;44.50;;;19.10;;
68825;SDS011;55841;53.392;10.086;2023-02-15T00:31:45;51.97;;;21.08;;
68825;SDS011;55841;53.392;10.086;2023-02-15T00:36:41;52.40;;;20.45;;
68825;SDS011;55841;53.392;10.086;2023-02-15T00:39:07;47.25;;;19.92;;
68825;SDS011;55841;53.392;10.086;2023-02-15T00:41:33;52.92;;;20.45;;
68825;SDS011;55841;53.392;10.086;2023-02-15T00:43:59;51.90;;;20.95;;
68825;SDS011;55841;53.392;10.086;2023-02-15T00:46:25;51.08;;;21.60;;
68825;SDS011;55841;53.392;10.086;2023-02-15T00:48:50;53.13;;;20.20;;
68825;SDS011;55841;53.392;10.086;2023-02-15T00:51:16;52.40;;;21.08;;
68825;SDS011;55841;53.392;10.086;2023-02-15T00:53:42;52.65;;;20.77;;
68825;SDS011;55841;53.392;10.086;2023-02-15T00:56:08;52.00;;;20.48;;
68825;SDS011;55841;53.392;10.086;2023-02-15T00:58:34;49.13;;;20.00;;
68825;SDS011;55841;53.392;10.086;2023-02-15T01:01:09;53.40;;;21.60;;
68825;SDS011;55841;53.392;10.086;2023-02-15T01:03:36;49.00;;;20.30;;
68825;SDS011;55841;53.392;10.086;2023-02-15T01:06:02;51.22;;;18.55;;
68825;SDS011;55841;53.392;10.086;2023-02-15T01:08:28;54.33;;;20.67;;
68825;SDS011;55841;53.392;10.086;2023-02-15T01:10:54;44.35;;;20.08;;
68825;SDS011;55841;53.392;10.086;2023-02-15T01:13:20;56.97;;;20.23;;
68825;SDS011;55841;53.392;10.086;2023-02-15T01:15:45;52.55;;;20.50;;
68825;SDS011;55841;53.392;10.086;2023-02-15T01:18:17;48.08;;;19.33;;
68825;SDS011;55841;53.392;10.086;2023-02-15T01:20:42;47.47;;;19.73;;
68825;SDS011;55841;53.392;10.086;2023-02-15T01:23:08;48.95;;;19.30;;
68825;SDS011;55841;53.392;10.086;2023-02-15T01:25:34;48.75;;;19.85;;
68825;SDS011;55841;53.392;10.086;2023-02-15T01:28:01;53.25;;;20.20;;
68825;SDS011;55841;53.392;10.086;2023-02-15T01:30:27;53.28;;;19.85;;
68825;SDS011;55841;53.392;10.086;2023-02-15T01:32:52;46.08;;;17.77;;
68825;SDS011;55841;53.392;10.086;2023-02-15T01:35:18;43.75;;;17.10;;
68825;SDS011;55841;53.392;10.086;2023-02-15T01:37:44;54.25;;;20.20;;
68825;SDS011;55841;53.392;10.086;2023-02-15T01:40:13;46.22;;;18.35;;
68825;SDS011;55841;53.392;10.086;2023-02-15T01:42:40;45.05;;;19.25;;
68825;SDS011;55841;53.392;10.086;2023-02-15T01:45:26;44.10;;;18.45;;
68825;SDS011;55841;53.392;10.086;2023-02-15T01:47:56;47.50;;;19.85;;
68825;SDS011;55841;53.392;10.086;2023-02-15T01:50:37;44.70;;;19.58;;
68825;SDS011;55841;53.392;10.086;2023-02-15T01:53:16;46.88;;;18.42;;
68825;SDS011;55841;53.392;10.086;2023-02-15T01:58:28;46.47;;;18.33;;
68825;SDS011;55841;53.392;10.086;2023-02-15T02:00:55;46.80;;;18.70;;
68825;SDS011;55841;53.392;10.086;2023-02-15T02:03:31;51.70;;;19.05;;
68825;SDS011;55841;53.392;10.086;2023-02-15T02:06:32;44.58;;;18.48;;
68825;SDS011;55841;53.392;10.086;2023-02-15T02:08:58;41.35;;;17.48;;
68825;SDS011;55841;53.392;10.086;2023-02-15T02:11:24;46.63;;;19.67;;
68825;SDS011;55841;53.392;10.086;2023-02-15T02:13:50;42.92;;;17.27;;
68825;SDS011;55841;53.392;10.086;2023-02-15T02:16:20;44.70;;;18.70;;
68825;SDS011;55841;53.392;10.086;2023-02-15T02:35:09;38.30;;;17.00;;
68825;SDS011;55841;53.392;10.086;2023-02-15T02:38:03;39.45;;;16.73;;
68825;SDS011;55841;53.392;10.086;2023-02-15T02:43:16;35.28;;;16.00;;
68825;SDS011;55841;53.392;10.086;2023-02-15T02:46:11;37.35;;;16.25;;
68825;SDS011;55841;53.392;10.086;2023-02-15T02:48:39;35.67;;;14.93;;
68825;SDS011;55841;53.392;10.086;2023-02-15T02:51:05;40.70;;;16.77;;
68825;SDS011;55841;53.392;10.086;2023-02-15T02:53:30;37.03;;;16.73;;
68825;SDS011;55841;53.392;10.086;2023-02-15T02:56:13;41.53;;;16.70;;
68825;SDS011;55841;53.392;10.086;2023-02-15T02:58:50;39.22;;;16.70;;
68825;SDS011;55841;53.392;10.086;2023-02-15T03:01:26;41.30;;;16.35;;
68825;SDS011;55841;53.392;10.086;2023-02-15T03:04:10;41.47;;;16.15;;
68825;SDS011;55841;53.392;10.086;2023-02-15T03:06:50;39.22;;;16.77;;
68825;SDS011;55841;53.392;10.086;2023-02-15T03:09:24;35.75;;;15.05;;
68825;SDS011;55841;53.392;10.086;2023-02-15T03:11:53;45.70;;;16.70;;
68825;SDS011;55841;53.392;10.086;2023-02-15T03:14:19;42.60;;;16.90;;
68825;SDS011;55841;53.392;10.086;2023-02-15T03:16:46;35.75;;;15.77;;
68825;SDS011;55841;53.392;10.086;2023-02-15T03:21:47;40.65;;;14.63;;
68825;SDS011;55841;53.392;10.086;2023-02-15T03:24:17;34.13;;;15.63;;
68825;SDS011;55841;53.392;10.086;2023-02-15T03:26:46;40.70;;;15.88;;
68825;SDS011;55841;53.392;10.086;2023-02-15T03:29:14;32.63;;;15.15;;
68825;SDS011;55841;53.392;10.086;2023-02-15T03:31:42;37.17;;;15.40;;
68825;SDS011;55841;53.392;10.086;2023-02-15T03:34:12;33.20;;;13.85;;
68825;SDS011;55841;53.392;10.086;2023-02-15T03:42:10;32.88;;;14.15;;
68825;SDS011;55841;53.392;10.086;2023-02-15T03:44:51;37.00;;;14.55;;
68825;SDS011;55841;53.392;10.086;2023-02-15T03:47:31;35.20;;;14.82;;
68825;SDS011;55841;53.392;10.086;2023-02-15T03:50:02;33.88;;;14.95;;
68825;SDS011;55841;53.392;10.086;2023-02-15T03:52:32;38.05;;;15.07;;
68825;SDS011;55841;53.392;10.086;2023-02-15T03:54:58;37.13;;;14.80;;
68825;SDS011;55841;53.392;10.086;2023-02-15T03:57:26;36.45;;;15.13;;
68825;SDS011;55841;53.392;10.086;2023-02-15T03:59:53;32.92;;;13.93;;
68825;SDS011;55841;53.392;10.086;2023-02-15T04:02:20;34.85;;;15.27;;
68825;SDS011;55841;53.392;10.086;2023-02-15T04:04:49;34.75;;;15.10;;
68825;SDS011;55841;53.392;10.086;2023-02-15T04:07:14;34.35;;;15.07;;
68825;SDS011;55841;53.392;10.086;2023-02-15T04:09:40;33.10;;;14.45;;
68825;SDS011;55841;53.392;10.086;2023-02-15T04:12:06;34.80;;;15.25;;
68825;SDS011;55841;53.392;10.086;2023-02-15T04:14:31;33.25;;;14.10;;
68825;SDS011;55841;53.392;10.086;2023-02-15T04:16:57;36.08;;;14.55;;
68825;SDS011;55841;53.392;10.086;2023-02-15T04:19:22;36.95;;;14.15;;
68825;SDS011;55841;53.392;10.086;2023-02-15T04:21:48;34.53;;;14.25;;
68825;SDS011;55841;53.392;10.086;2023-02-15T04:24:13;32.75;;;15.52;;
68825;SDS011;55841;53.392;10.086;2023-02-15T04:26:39;32.20;;;13.93;;
68825;SDS011;55841;53.392;10.086;2023-02-15T04:29:05;29.85;;;13.55;;
68825;SDS011;55841;53.392;10.086;2023-02-15T04:31:30;30.40;;;14.35;;
68825;SDS011;55841;53.392;10.086;2023-02-15T04:33:56;26.63;;;11.82;;
68825;SDS011;55841;53.392;10.086;2023-02-15T04:36:21;32.25;;;13.30;;
68825;SDS011;55841;53.392;10.086;2023-02-15T04:38:47;34.75;;;13.95;;
68825;SDS011;55841;53.392;10.086;2023-02-15T04:41:12;32.53;;;13.80;;
68825;SDS011;55841;53.392;10.086;2023-02-15T04:43:38;32.20;;;13.95;;
68825;SDS011;55841;53.392;10.086;2023-02-15T04:46:03;31.20;;;13.82;;
68825;SDS011;55841;53.392;10.086;2023-02-15T04:48:29;32.55;;;13.32;;
68825;SDS011;55841;53.392;10.086;2023-02-15T04:50:55;35.72;;;13.43;;
68825;SDS011;55841;53.392;10.086;2023-02-15T04:53:20;31.52;;;12.60;;
68825;SDS011;55841;53.392;10.086;2023-02-15T04:55:46;29.80;;;13.80;;
68825;SDS011;55841;53.392;10.086;2023-02-15T04:58:12;27.17;;;12.32;;
68825;SDS011;55841;53.392;10.086;2023-02-15T05:00:37;30.17;;;13.45;;
68825;SDS011;55841;53.392;10.086;2023-02-15T05:03:03;29.55;;;13.20;;
68825;SDS011;55841;53.392;10.086;2023-02-15T05:05:28;29.52;;;13.20;;
68825;SDS011;55841;53.392;10.086;2023-02-15T05:07:54;33.33;;;12.75;;
68825;SDS011;55841;53.392;10.086;2023-02-15T05:10:19;31.58;;;13.07;;
68825;SDS011;55841;53.392;10.086;2023-02-15T05:12:45;30.17;;;12.88;;
68825;SDS011;55841;53.392;10.086;2023-02-15T05:15:11;27.08;;;12.50;;
68825;SDS011;55841;53.392;10.086;2023-02-15T05:17:36;30.42;;;12.68;;
68825;SDS011;55841;53.392;10.086;2023-02-15T05:20:02;29.75;;;13.57;;
68825;SDS011;55841;53.392;10.086;2023-02-15T05:22:28;28.30;;;12.90;;
68825;SDS011;55841;53.392;10.086;2023-02-15T05:24:53;28.55;;;11.57;;
68825;SDS011;55841;53.392;10.086;2023-02-15T05:27:19;27.02;;;10.85;;
68825;SDS011;55841;53.392;10.086;2023-02-15T05:29:44;24.52;;;11.13;;
68825;SDS011;55841;53.392;10.086;2023-02-15T05:32:12;27.27;;;12.05;;
68825;SDS011;55841;53.392;10.086;2023-02-15T05:34:38;24.92;;;11.30;;
68825;SDS011;55841;53.392;10.086;2023-02-15T05:37:04;29.45;;;13.10;;
68825;SDS011;55841;53.392;10.086;2023-02-15T05:39:29;27.67;;;11.73;;
68825;SDS011;55841;53.392;10.086;2023-02-15T05:41:57;27.15;;;11.82;;
68825;SDS011;55841;53.392;10.086;2023-02-15T05:44:26;27.75;;;11.98;;
68825;SDS011;55841;53.392;10.086;2023-02-15T05:46:51;28.13;;;12.50;;
68825;SDS011;55841;53.392;10.086;2023-02-15T05:49:17;31.38;;;11.18;;
68825;SDS011;55841;53.392;10.086;2023-02-15T05:51:42;27.55;;;12.85;;
68825;SDS011;55841;53.392;10.086;2023-02-15T05:54:08;30.20;;;12.48;;
68825;SDS011;55841;53.392;10.086;2023-02-15T05:59:51;29.20;;;11.93;;
68825;SDS011;55841;53.392;10.086;2023-02-15T06:05:42;28.13;;;11.80;;
68825;SDS011;55841;53.392;10.086;2023-02-15T06:08:10;31.10;;;11.88;;
68825;SDS011;55841;53.392;10.086;2023-02-15T06:10:36;24.50;;;11.45;;
68825;SDS011;55841;53.392;10.086;2023-02-15T06:13:01;26.33;;;11.98;;
68825;SDS011;55841;53.392;10.086;2023-02-15T06:15:27;31.02;;;10.55;;
68825;SDS011;55841;53.392;10.086;2023-02-15T06:17:52;26.05;;;10.85;;
68825;SDS011;55841;53.392;10.086;2023-02-15T06:20:18;21.80;;;9.85;;
68825;SDS011;55841;53.392;10.086;2023-02-15T06:22:43;28.05;;;11.88;;
68825;SDS011;55841;53.392;10.086;2023-02-15T06:25:09;26.52;;;10.30;;
68825;SDS011;55841;53.392;10.086;2023-02-15T06:27:35;25.35;;;10.40;;
68825;SDS011;55841;53.392;10.086;2023-02-15T06:30:00;25.83;;;10.43;;
68825;SDS011;55841;53.392;10.086;2023-02-15T06:32:26;25.10;;;10.32;;
68825;SDS011;55841;53.392;10.086;2023-02-15T06:34:52;26.20;;;11.23;;
68825;SDS011;55841;53.392;10.086;2023-02-15T06:37:17;28.48;;;11.85;;
68825;SDS011;55841;53.392;10.086;2023-02-15T06:39:44;23.77;;;10.23;;
68825;SDS011;55841;53.392;10.086;2023-02-15T06:42:09;27.15;;;11.32;;
68825;SDS011;55841;53.392;10.086;2023-02-15T06:44:35;25.40;;;11.40;;
68825;SDS011;55841;53.392;10.086;2023-02-15T06:47:00;25.90;;;11.70;;
68825;SDS011;55841;53.392;10.086;2023-02-15T06:49:26;23.30;;;10.70;;
68825;SDS011;55841;53.392;10.086;2023-02-15T06:51:52;25.00;;;11.27;;
68825;SDS011;55841;53.392;10.086;2023-02-15T06:54:18;23.80;;;11.55;;
68825;SDS011;55841;53.392;10.086;2023-02-15T06:56:44;24.35;;;11.65;;
68825;SDS011;55841;53.392;10.086;2023-02-15T06:59:09;24.30;;;10.93;;
68825;SDS011;55841;53.392;10.086;2023-02-15T07:01:35;22.60;;;9.90;;
68825;SDS011;55841;53.392;10.086;2023-02-15T07:04:00;24.30;;;9.82;;
68825;SDS011;55841;53.392;10.086;2023-02-15T07:06:26;26.80;;;10.90;;
68825;SDS011;55841;53.392;10.086;2023-02-15T07:08:55;25.30;;;10.88;;
68825;SDS011;55841;53.392;10.086;2023-02-15T07:11:20;22.48;;;10.27;;
68825;SDS011;55841;53.392;10.086;2023-02-15T07:13:46;23.73;;;10.80;;
68825;SDS011;55841;53.392;10.086;2023-02-15T07:16:12;22.30;;;10.55;;
68825;SDS011;55841;53.392;10.086;2023-02-15T07:18:38;24.48;;;10.52;;
68825;SDS011;55841;53.392;10.086;2023-02-15T07:21:04;23.52;;;10.45;;
68825;SDS011;55841;53.392;10.086;2023-02-15T07:25:59;21.88;;;10.13;;
68825;SDS011;55841;53.392;10.086;2023-02-15T07:28:25;24.65;;;9.73;;
68825;SDS011;55841;53.392;10.086;2023-02-15T07:30:51;21.70;;;9.95;;
68825;SDS011;55841;53.392;10.086;2023-02-15T07:33:16;26.58;;;10.25;;
68825;SDS011;55841;53.392;10.086;2023-02-15T07:35:48;21.58;;;9.73;;
68825;SDS011;55841;53.392;10.086;2023-02-15T07:38:15;21.48;;;9.90;;
68825;SDS011;55841;53.392;10.086;2023-02-15T07:40:41;23.40;;;9.55;;
68825;SDS011;55841;53.392;10.086;2023-02-15T07:43:07;20.73;;;9.23;;
68825;SDS011;55841;53.392;10.086;2023-02-15T07:45:32;20.15;;;8.77;;
68825;SDS011;55841;53.392;10.086;2023-02-15T07:47:59;19.73;;;9.25;;
68825;SDS011;55841;53.392;10.086;2023-02-15T07:50:25;20.25;;;9.40;;
68825;SDS011;55841;53.392;10.086;2023-02-15T07:52:51;19.35;;;9.45;;
68825;SDS011;55841;53.392;10.086;2023-02-15T07:55:17;19.77;;;9.20;;
68825;SDS011;55841;53.392;10.086;2023-02-15T07:57:43;20.98;;;9.05;;
68825;SDS011;55841;53.392;10.086;2023-02-15T08:00:09;19.30;;;9.45;;
68825;SDS011;55841;53.392;10.086;2023-02-15T08:02:36;21.83;;;9.57;;
68825;SDS011;55841;53.392;10.086;2023-02-15T08:05:01;19.67;;;9.30;;
68825;SDS011;55841;53.392;10.086;2023-02-15T08:07:26;20.52;;;9.35;;
68825;SDS011;55841;53.392;10.086;2023-02-15T08:09:52;17.00;;;8.07;;
68825;SDS011;55841;53.392;10.086;2023-02-15T08:12:17;18.95;;;8.93;;
68825;SDS011;55841;53.392;10.086;2023-02-15T08:14:43;21.00;;;9.43;;
68825;SDS011;55841;53.392;10.086;2023-02-15T08:17:08;24.30;;;9.50;;
68825;SDS011;55841;53.392;10.086;2023-02-15T08:19:34;21.52;;;9.48;;
68825;SDS011;55841;53.392;10.086;2023-02-15T08:22:06;21.33;;;8.70;;
68825;SDS011;55841;53.392;10.086;2023-02-15T08:24:33;20.65;;;9.40;;
68825;SDS011;55841;53.392;10.086;2023-02-15T08:27:00;21.50;;;10.05;;
68825;SDS011;55841;53.392;10.086;2023-02-15T08:29:27;23.35;;;10.20;;
68825;SDS011;55841;53.392;10.086;2023-02-15T08:31:54;21.30;;;8.93;;
68825;SDS011;55841;53.392;10.086;2023-02-15T08:34:21;21.40;;;10.07;;
68825;SDS011;55841;53.392;10.086;2023-02-15T08:36:47;20.75;;;9.15;;
68825;SDS011;55841;53.392;10.086;2023-02-15T08:39:13;21.75;;;9.13;;
68825;SDS011;55841;53.392;10.086;2023-02-15T08:41:43;21.75;;;9.68;;
68825;SDS011;55841;53.392;10.086;2023-02-15T08:44:09;20.25;;;9.13;;
68825;SDS011;55841;53.392;10.086;2023-02-15T08:46:36;22.35;;;9.13;;
68825;SDS011;55841;53.392;10.086;2023-02-15T08:49:04;19.80;;;9.02;;
68825;SDS011;55841;53.392;10.086;2023-02-15T08:51:31;21.77;;;9.57;;
68825;SDS011;55841;53.392;10.086;2023-02-15T08:53:59;22.27;;;9.57;;
68825;SDS011;55841;53.392;10.086;2023-02-15T08:56:28;23.85;;;10.32;;
68825;SDS011;55841;53.392;10.086;2023-02-15T08:58:56;20.20;;;9.27;;
68825;SDS011;55841;53.392;10.086;2023-02-15T09:01:23;19.20;;;9.15;;
68825;SDS011;55841;53.392;10.086;2023-02-15T09:03:51;22.05;;;10.35;;
68825;SDS011;55841;53.392;10.086;2023-02-15T09:06:20;20.58;;;9.43;;
68825;SDS011;55841;53.392;10.086;2023-02-15T09:08:47;21.17;;;10.13;;
68825;SDS011;55841;53.392;10.086;2023-02-15T09:13:42;22.10;;;9.00;;
68825;SDS011;55841;53.392;10.086;2023-02-15T09:16:08;20.52;;;8.85;;
68825;SDS011;55841;53.392;10.086;2023-02-15T09:18:37;21.45;;;9.98;;
68825;SDS011;55841;53.392;10.086;2023-02-15T09:21:04;19.27;;;9.10;;
68825;SDS011;55841;53.392;10.086;2023-02-15T09:23:41;21.38;;;9.63;;
68825;SDS011;55841;53.392;10.086;2023-02-15T09:26:18;21.25;;;9.32;;
68825;SDS011;55841;53.392;10.086;2023-02-15T09:28:45;22.27;;;9.73;;
68825;SDS011;55841;53.392;10.086;2023-02-15T09:31:12;20.00;;;9.55;;
68825;SDS011;55841;53.392;10.086;2023-02-15T09:33:38;20.10;;;9.18;;
68825;SDS011;55841;53.392;10.086;2023-02-15T09:36:05;20.35;;;9.50;;
68825;SDS011;55841;53.392;10.086;2023-02-15T09:38:38;19.83;;;9.25;;
68825;SDS011;55841;53.392;10.086;2023-02-15T09:41:28;20.15;;;9.07;;
68825;SDS011;55841;53.392;10.086;2023-02-15T09:44:11;21.70;;;9.43;;
68825;SDS011;55841;53.392;10.086;2023-02-15T09:46:59;20.73;;;9.02;;
68825;SDS011;55841;53.392;10.086;2023-02-15T09:49:44;19.63;;;8.85;;
68825;SDS011;55841;53.392;10.086;2023-02-15T10:00:43;20.08;;;9.20;;
68825;SDS011;55841;53.392;10.086;2023-02-15T10:11:07;20.15;;;8.73;;
68825;SDS011;55841;53.392;10.086;2023-02-15T10:46:32;18.55;;;8.45;;
68825;SDS011;55841;53.392;10.086;2023-02-15T10:49:45;21.88;;;10.02;;
68825;SDS011;55841;53.392;10.086;2023-02-15T10:55:04;19.75;;;10.10;;
68825;SDS011;55841;53.392;10.086;2023-02-15T11:00:36;18.90;;;8.75;;
68825;SDS011;55841;53.392;10.086;2023-02-15T11:03:25;17.30;;;9.10;;
68825;SDS011;55841;53.392;10.086;2023-02-15T11:06:08;19.35;;;9.73;;
68825;SDS011;55841;53.392;10.086;2023-02-15T11:08:39;17.38;;;8.85;;
68825;SDS011;55841;53.392;10.086;2023-02-15T11:11:13;17.67;;;8.60;;
68825;SDS011;55841;53.392;10.086;2023-02-15T11:13:45;18.33;;;9.50;;
68825;SDS011;55841;53.392;10.086;2023-02-15T11:16:16;18.25;;;8.85;;
68825;SDS011;55841;53.392;10.086;2023-02-15T11:21:48;21.40;;;9.73;;
68825;SDS011;55841;53.392;10.086;2023-02-15T11:24:16;19.83;;;9.80;;
68825;SDS011;55841;53.392;10.086;2023-02-15T11:29:12;20.50;;;10.63;;
68825;SDS011;55841;53.392;10.086;2023-02-15T11:32:01;20.80;;;10.20;;
68825;SDS011;55841;53.392;10.086;2023-02-15T11:34:37;20.73;;;10.57;;
68825;SDS011;55841;53.392;10.086;2023-02-15T11:37:11;19.60;;;10.65;;
68825;SDS011;55841;53.392;10.086;2023-02-15T11:39:38;17.92;;;10.00;;
68825;SDS011;55841;53.392;10.086;2023-02-15T11:42:06;18.77;;;10.05;;
68825;SDS011;55841;53.392;10.086;2023-02-15T11:44:42;19.00;;;9.77;;
68825;SDS011;55841;53.392;10.086;2023-02-15T11:47:13;21.65;;;10.75;;
68825;SDS011;55841;53.392;10.086;2023-02-15T11:49:39;19.38;;;9.70;;
68825;SDS011;55841;53.392;10.086;2023-02-15T11:52:05;19.13;;;9.57;;
68825;SDS011;55841;53.392;10.086;2023-02-15T11:54:42;19.42;;;10.35;;
68825;SDS011;55841;53.392;10.086;2023-02-15T12:02:46;19.75;;;10.38;;
68825;SDS011;55841;53.392;10.086;2023-02-15T12:05:17;18.80;;;9.65;;
68825;SDS011;55841;53.392;10.086;2023-02-15T12:07:55;18.45;;;9.70;;
68825;SDS011;55841;53.392;10.086;2023-02-15T12:10:44;17.33;;;8.70;;
68825;SDS011;55841;53.392;10.086;2023-02-15T12:13:22;19.63;;;9.20;;
68825;SDS011;55841;53.392;10.086;2023-02-15T12:15:48;19.30;;;9.82;;
68825;SDS011;55841;53.392;10.086;2023-02-15T12:18:19;16.50;;;8.35;;
68825;SDS011;55841;53.392;10.086;2023-02-15T12:20:59;22.63;;;11.07;;
68825;SDS011;55841;53.392;10.086;2023-02-15T12:23:34;18.13;;;9.32;;
68825;SDS011;55841;53.392;10.086;2023-02-15T12:26:32;17.45;;;9.15;;
68825;SDS011;55841;53.392;10.086;2023-02-15T12:29:21;17.15;;;8.93;;
68825;SDS011;55841;53.392;10.086;2023-02-15T12:31:47;16.90;;;8.82;;
68825;SDS011;55841;53.392;10.086;2023-02-15T12:34:24;19.55;;;10.30;;
68825;SDS011;55841;53.392;10.086;2023-02-15T12:36:54;18.83;;;9.63;;
68825;SDS011;55841;53.392;10.086;2023-02-15T12:39:22;19.88;;;10.45;;
68825;SDS011;55841;53.392;10.086;2023-02-15T12:44:20;20.10;;;10.48;;
68825;SDS011;55841;53.392;10.086;2023-02-15T12:47:03;19.38;;;9.85;;
68825;SDS011;55841;53.392;10.086;2023-02-15T12:49:41;18.85;;;10.20;;
68825;SDS011;55841;53.392;10.086;2023-02-15T12:54:43;19.50;;;10.27;;
68825;SDS011;55841;53.392;10.086;2023-02-15T12:57:30;19.83;;;10.25;;
68825;SDS011;55841;53.392;10.086;2023-02-15T13:00:00;17.70;;;9.68;;
68825;SDS011;55841;53.392;10.086;2023-02-15T13:07:50;17.48;;;8.90;;
68825;SDS011;55841;53.392;10.086;2023-02-15T13:10:22;18.80;;;10.35;;
68825;SDS011;55841;53.392;10.086;2023-02-15T13:12:50;18.73;;;10.60;;
68825;SDS011;55841;53.392;10.086;2023-02-15T13:18:00;17.73;;;9.70;;
68825;SDS011;55841;53.392;10.086;2023-02-15T13:20:27;20.05;;;8.75;;
68825;SDS011;55841;53.392;10.086;2023-02-15T13:22:56;18.13;;;9.77;;
68825;SDS011;55841;53.392;10.086;2023-02-15T13:25:32;18.23;;;9.43;;
68825;SDS011;55841;53.392;10.086;2023-02-15T13:28:05;16.92;;;9.32;;
68825;SDS011;55841;53.392;10.086;2023-02-15T13:30:40;17.30;;;8.85;;
68825;SDS011;55841;53.392;10.086;2023-02-15T13:33:51;15.98;;;8.57;;
68825;SDS011;55841;53.392;10.086;2023-02-15T13:36:02;19.50;;;10.90;;
68825;SDS011;55841;53.392;10.086;2023-02-15T13:47:43;20.50;;;10.48;;
68825;SDS011;55841;53.392;10.086;2023-02-15T13:55:44;18.52;;;10.50;;
68825;SDS011;55841;53.392;10.086;2023-02-15T14:04:15;19.08;;;10.43;;
68825;SDS011;55841;53.392;10.086;2023-02-15T14:20:58;23.67;;;10.40;;
68825;SDS011;55841;53.392;10.086;2023-02-15T14:29:45;21.25;;;11.85;;
68825;SDS011;55841;53.392;10.086;2023-02-15T14:34:57;22.05;;;10.68;;
68825;SDS011;55841;53.392;10.086;2023-02-15T14:42:58;22.55;;;11.80;;
68825;SDS011;55841;53.392;10.086;2023-02-15T14:45:35;21.52;;;12.30;;
68825;SDS011;55841;53.392;10.086;2023-02-15T14:54:08;23.40;;;12.35;;
68825;SDS011;55841;53.392;10.086;2023-02-15T14:56:35;22.48;;;12.20;;
68825;SDS011;55841;53.392;10.086;2023-02-15T14:59:11;24.73;;;12.38;;
68825;SDS011;55841;53.392;10.086;2023-02-15T15:01:52;23.80;;;12.32;;
68825;SDS011;55841;53.392;10.086;2023-02-15T15:07:22;41.10;;;21.65;;
68825;SDS011;55841;53.392;10.086;2023-02-15T15:09:59;28.08;;;15.15;;
68825;SDS011;55841;53.392;10.086;2023-02-15T15:12:55;33.03;;;17.45;;
68825;SDS011;55841;53.392;10.086;2023-02-15T15:17:54;23.77;;;13.15;;
68825;SDS011;55841;53.392;10.086;2023-02-15T15:20:43;24.88;;;12.52;;
68825;SDS011;55841;53.392;10.086;2023-02-15T15:25:45;32.97;;;17.77;;
68825;SDS011;55841;53.392;10.086;2023-02-15T15:36:35;26.17;;;12.77;;
68825;SDS011;55841;53.392;10.086;2023-02-15T15:42:12;28.02;;;14.63;;
68825;SDS011;55841;53.392;10.086;2023-02-15T15:45:22;27.95;;;14.32;;
68825;SDS011;55841;53.392;10.086;2023-02-15T15:47:58;28.08;;;14.73;;
68825;SDS011;55841;53.392;10.086;2023-02-15T15:50:47;25.42;;;13.30;;
68825;SDS011;55841;53.392;10.086;2023-02-15T15:53:21;28.40;;;14.73;;
68825;SDS011;55841;53.392;10.086;2023-02-15T15:55:50;26.05;;;13.35;;
68825;SDS011;55841;53.392;10.086;2023-02-15T15:58:19;28.85;;;15.13;;
68825;SDS011;55841;53.392;10.086;2023-02-15T16:00:47;30.40;;;14.13;;
68825;SDS011;55841;53.392;10.086;2023-02-15T16:03:16;28.75;;;14.40;;
68825;SDS011;55841;53.392;10.086;2023-02-15T16:05:45;27.75;;;14.68;;
68825;SDS011;55841;53.392;10.086;2023-02-15T16:08:10;31.67;;;14.85;;
68825;SDS011;55841;53.392;10.086;2023-02-15T16:10:36;29.63;;;15.23;;
68825;SDS011;55841;53.392;10.086;2023-02-15T16:13:02;30.90;;;15.18;;
68825;SDS011;55841;53.392;10.086;2023-02-15T16:15:36;27.67;;;13.82;;
68825;SDS011;55841;53.392;10.086;2023-02-15T16:18:11;31.98;;;14.93;;
68825;SDS011;55841;53.392;10.086;2023-02-15T16:20:40;35.17;;;15.02;;
68825;SDS011;55841;53.392;10.086;2023-02-15T16:28:20;34.22;;;15.95;;
68825;SDS011;55841;53.392;10.086;2023-02-15T16:30:45;34.97;;;16.67;;
68825;SDS011;55841;53.392;10.086;2023-02-15T16:33:34;35.20;;;16.73;;
68825;SDS011;55841;53.392;10.086;2023-02-15T16:36:01;31.52;;;15.15;;
68825;SDS011;55841;53.392;10.086;2023-02-15T16:38:44;31.65;;;17.13;;
68825;SDS011;55841;53.392;10.086;2023-02-15T16:41:28;34.25;;;15.68;;
68825;SDS011;55841;53.392;10.086;2023-02-15T16:43:55;31.77;;;14.98;;
68825;SDS011;55841;53.392;10.086;2023-02-15T16:46:27;40.13;;;18.92;;
68825;SDS011;55841;53.392;10.086;2023-02-15T16:48:55;36.97;;;17.92;;
68825;SDS011;55841;53.392;10.086;2023-02-15T16:51:25;36.33;;;16.75;;
68825;SDS011;55841;53.392;10.086;2023-02-15T16:53:53;33.63;;;15.95;;
68825;SDS011;55841;53.392;10.086;2023-02-15T16:58:50;33.65;;;16.88;;
68825;SDS011;55841;53.392;10.086;2023-02-15T17:01:20;41.65;;;21.38;;
68825;SDS011;55841;53.392;10.086;2023-02-15T17:03:49;34.53;;;16.65;;
68825;SDS011;55841;53.392;10.086;2023-02-15T17:06:18;34.83;;;17.70;;
68825;SDS011;55841;53.392;10.086;2023-02-15T17:08:48;34.08;;;16.48;;
68825;SDS011;55841;53.392;10.086;2023-02-15T17:11:15;34.40;;;17.10;;
68825;SDS011;55841;53.392;10.086;2023-02-15T17:16:27;34.13;;;16.75;;
68825;SDS011;55841;53.392;10.086;2023-02-15T17:18:56;31.15;;;15.63;;
68825;SDS011;55841;53.392;10.086;2023-02-15T17:21:24;36.78;;;16.98;;
68825;SDS011;55841;53.392;10.086;2023-02-15T17:23:59;31.77;;;15.80;;
68825;SDS011;55841;53.392;10.086;2023-02-15T17:26:34;33.03;;;15.98;;
68825;SDS011;55841;53.392;10.086;2023-02-15T17:29:05;34.70;;;16.73;;
68825;SDS011;55841;53.392;10.086;2023-02-15T17:31:42;33.15;;;15.23;;
68825;SDS011;55841;53.392;10.086;2023-02-15T17:34:40;32.10;;;15.07;;
68825;SDS011;55841;53.392;10.086;2023-02-15T17:37:09;31.35;;;15.93;;
68825;SDS011;55841;53.392;10.086;2023-02-15T17:39:56;31.58;;;15.85;;
68825;SDS011;55841;53.392;10.086;2023-02-15T17:42:23;31.73;;;15.05;;
68825;SDS011;55841;53.392;10.086;2023-02-15T17:44:48;31.98;;;16.00;;
68825;SDS011;55841;53.392;10.086;2023-02-15T17:47:20;34.90;;;16.48;;
68825;SDS011;55841;53.392;10.086;2023-02-15T17:49:48;36.33;;;16.70;;
68825;SDS011;55841;53.392;10.086;2023-02-15T17:52:13;35.30;;;18.15;;
68825;SDS011;55841;53.392;10.086;2023-02-15T17:54:40;36.35;;;17.48;;